Time,TemperatureF,DewpointF,PressureIn,WindDirection,WindDirectionDegrees,WindSpeedMPH,WindSpeedGustMPH,Humidity,HourlyPrecipIn,Conditions,Clouds,dailyrainin,SoftwareType,DateUTC
2013-04-22 07:11:00,48.0,45.0,29.93,ESE,105,0.0,0.0,89,0.00,,,0.00,,2013-04-22 14:11:00,
2013-04-22 07:21:00,48.0,45.0,29.93,ESE,105,0.0,0.0,89,0.00,,,0.00,,2013-04-22 14:21:00,
2013-04-22 07:33:00,48.0,45.0,29.93,ESE,105,0.0,0.0,89,0.00,,,0.00,,2013-04-22 14:33:00,
2013-04-22 07:42:00,48.0,45.0,29.93,ESE,105,0.0,0.0,89,0.00,,,0.00,,2013-04-22 14:42:00,
2013-04-22 07:51:00,49.0,46.0,29.93,ESE,105,0.0,0.0,89,0.00,,,0.00,,2013-04-22 14:51:00,
2013-04-22 08:01:00,51.0,47.0,29.94,ENE,62,0.0,0.0,87,0.00,,,0.00,,2013-04-22 15:01:00,
2013-04-22 08:11:00,51.0,47.0,29.94,ENE,62,0.0,0.0,87,0.00,,,0.00,,2013-04-22 15:11:00,
2013-04-22 08:22:00,52.0,48.0,29.94,ENE,62,0.0,0.0,86,0.00,,,0.00,,2013-04-22 15:22:00,
2013-04-22 08:33:00,54.0,49.0,29.94,ENE,69,0.0,0.0,83,0.00,,,0.00,,2013-04-22 15:33:00,
2013-04-22 08:42:00,54.0,49.0,29.94,ENE,69,0.0,0.0,83,0.00,,,0.00,,2013-04-22 15:42:00,
2013-04-22 08:53:00,56.0,50.0,29.94,ENE,70,1.0,2.0,81,0.00,,,0.00,,2013-04-22 15:53:00,
2013-04-22 09:02:00,59.0,53.0,29.94,ENE,70,0.0,2.0,81,0.00,,,0.00,,2013-04-22 16:02:00,
2013-04-22 09:12:00,59.0,53.0,29.94,ENE,70,0.0,2.0,81,0.00,,,0.00,,2013-04-22 16:12:00,
2013-04-22 09:22:00,59.0,53.0,29.94,ENE,70,0.0,2.0,81,0.00,,,0.00,,2013-04-22 16:22:00,
2013-04-22 09:32:00,66.0,54.0,29.94,ESE,108,0.0,0.0,65,0.00,,,0.00,,2013-04-22 16:32:00,
2013-04-22 09:42:00,66.0,54.0,29.94,ESE,108,0.0,0.0,65,0.00,,,0.00,,2013-04-22 16:42:00,
2013-04-22 09:52:00,69.0,55.0,29.94,SSE,161,0.0,0.0,60,0.00,,,0.00,,2013-04-22 16:52:00,
2013-04-22 10:02:00,69.0,52.0,29.95,SSE,148,0.0,0.0,55,0.00,,,0.00,,2013-04-22 17:02:00,
2013-04-22 10:12:00,69.0,52.0,29.95,SSE,148,0.0,0.0,55,0.00,,,0.00,,2013-04-22 17:12:00,
2013-04-22 10:21:00,72.0,46.0,29.94,NW,317,2.0,3.0,39,0.00,,,0.00,,2013-04-22 17:21:00,
2013-04-22 10:31:00,74.0,47.0,29.94,NW,316,1.0,3.0,38,0.00,,,0.00,,2013-04-22 17:31:00,
2013-04-22 10:42:00,74.0,47.0,29.94,NW,316,1.0,3.0,38,0.00,,,0.00,,2013-04-22 17:42:00,
2013-04-22 10:51:00,76.0,45.0,29.95,West,265,1.0,2.0,33,0.00,,,0.00,,2013-04-22 17:51:00,
2013-04-22 11:01:00,78.0,40.0,29.94,WSW,240,1.0,2.0,26,0.00,,,0.00,,2013-04-22 18:01:00,
2013-04-22 11:21:00,80.0,37.0,29.94,NNW,343,2.0,5.0,21,0.00,,,0.00,,2013-04-22 18:21:00,
2013-04-22 11:32:00,81.0,35.0,29.95,NW,326,2.0,3.0,19,0.00,,,0.00,,2013-04-22 18:32:00,
2013-04-22 11:52:00,80.0,35.0,29.95,North,355,2.0,4.0,20,0.00,,,0.00,,2013-04-22 18:52:00,
2013-04-22 12:01:00,82.0,38.0,29.94,NW,313,2.0,4.0,21,0.00,,,0.00,,2013-04-22 19:01:00,
2013-04-22 12:11:00,82.0,38.0,29.94,NW,313,2.0,4.0,21,0.00,,,0.00,,2013-04-22 19:11:00,
2013-04-22 12:21:00,82.0,38.0,29.94,NE,43,0.0,4.0,21,0.00,,,0.00,,2013-04-22 19:21:00,
2013-04-22 12:32:00,84.0,33.0,29.93,WSW,252,2.0,3.0,16,0.00,,,0.00,,2013-04-22 19:32:00,
2013-04-22 12:42:00,84.0,33.0,29.93,WSW,252,2.0,3.0,16,0.00,,,0.00,,2013-04-22 19:42:00,
2013-04-22 12:52:00,84.0,37.0,29.93,NW,315,1.0,6.0,19,0.00,,,0.00,,2013-04-22 19:52:00,
2013-04-22 13:02:00,85.0,34.0,29.92,East,97,2.0,4.0,16,0.00,,,0.00,,2013-04-22 20:02:00,
2013-04-22 13:11:00,85.0,34.0,29.92,East,97,2.0,4.0,16,0.00,,,0.00,,2013-04-22 20:11:00,
2013-04-22 13:22:00,86.0,31.0,29.91,NW,308,2.0,3.0,14,0.00,,,0.00,,2013-04-22 20:22:00,
2013-04-22 13:31:00,86.0,31.0,29.91,NW,308,2.0,3.0,14,0.00,,,0.00,,2013-04-22 20:31:00,
2013-04-22 13:41:00,86.0,31.0,29.91,NW,308,2.0,3.0,14,0.00,,,0.00,,2013-04-22 20:41:00,
2013-04-22 13:51:00,86.0,31.0,29.91,NW,308,2.0,3.0,14,0.00,,,0.00,,2013-04-22 20:51:00,
2013-04-22 14:33:00,89.0,32.0,29.89,East,90,1.0,3.0,13,0.00,,,0.00,,2013-04-22 21:33:00,
2013-04-22 14:43:00,89.0,32.0,29.89,East,90,1.0,3.0,13,0.00,,,0.00,,2013-04-22 21:43:00,
2013-04-22 14:53:00,87.0,30.0,29.88,ESE,123,2.0,5.0,13,0.00,,,0.00,,2013-04-22 21:53:00,
2013-04-22 15:02:00,88.0,29.0,29.88,West,269,1.0,5.0,12,0.00,,,0.00,,2013-04-22 22:02:00,
2013-04-22 15:12:00,88.0,29.0,29.88,West,269,1.0,5.0,12,0.00,,,0.00,,2013-04-22 22:12:00,
2013-04-22 15:22:00,88.0,31.0,29.88,NW,310,1.0,3.0,13,0.00,,,0.00,,2013-04-22 22:22:00,
2013-04-22 15:32:00,88.0,29.0,29.87,SSE,151,2.0,3.0,12,0.00,,,0.00,,2013-04-22 22:32:00,
2013-04-22 15:52:00,88.0,31.0,29.86,SSE,155,2.0,3.0,13,0.00,,,0.00,,2013-04-22 22:52:00,
2013-04-22 16:11:00,89.0,34.0,29.85,South,169,1.0,3.0,14,0.00,,,0.00,,2013-04-22 23:11:00,
2013-04-22 16:21:00,89.0,34.0,29.85,South,169,1.0,3.0,14,0.00,,,0.00,,2013-04-22 23:21:00,
2013-04-22 16:32:00,89.0,45.0,29.85,ESE,123,2.0,6.0,22,0.00,,,0.00,,2013-04-22 23:32:00,
2013-04-22 16:42:00,89.0,45.0,29.85,ESE,123,2.0,6.0,22,0.00,,,0.00,,2013-04-22 23:42:00,
2013-04-22 16:52:00,86.0,46.0,29.85,SE,128,3.0,11.0,25,0.00,,,0.00,,2013-04-22 23:52:00,
2013-04-22 17:01:00,84.0,46.0,29.85,SSE,158,4.0,11.0,27,0.00,,,0.00,,2013-04-23 00:01:00,
2013-04-22 17:12:00,84.0,46.0,29.85,SSE,158,4.0,11.0,27,0.00,,,0.00,,2013-04-23 00:12:00,
2013-04-22 17:21:00,83.0,47.0,29.85,South,190,3.0,9.0,28,0.00,,,0.00,,2013-04-23 00:21:00,
2013-04-22 17:31:00,83.0,50.0,29.84,SSW,199,3.0,9.0,32,0.00,,,0.00,,2013-04-23 00:31:00,
2013-04-22 17:42:00,83.0,50.0,29.84,SSW,199,3.0,9.0,32,0.00,,,0.00,,2013-04-23 00:42:00,
2013-04-22 17:51:00,82.0,51.0,29.84,SSW,194,2.0,8.0,34,0.00,,,0.00,,2013-04-23 00:51:00,
2013-04-22 18:01:00,81.0,50.0,29.84,South,180,2.0,9.0,34,0.00,,,0.00,,2013-04-23 01:01:00,
2013-04-22 18:11:00,81.0,50.0,29.84,South,180,2.0,9.0,34,0.00,,,0.00,,2013-04-23 01:11:00,
2013-04-22 18:21:00,81.0,52.0,29.84,SSE,166,2.0,6.0,36,0.00,,,0.00,,2013-04-23 01:21:00,
2013-04-22 18:32:00,81.0,51.0,29.84,ESE,119,2.0,10.0,35,0.00,,,0.00,,2013-04-23 01:32:00,
2013-04-22 18:42:00,81.0,51.0,29.84,ESE,119,2.0,10.0,35,0.00,,,0.00,,2013-04-23 01:42:00,
2013-04-22 18:52:00,79.0,50.0,29.85,ESE,119,2.0,4.0,37,0.00,,,0.00,,2013-04-23 01:52:00,
2013-04-22 19:01:00,79.0,50.0,29.85,ESE,119,2.0,4.0,37,0.00,,,0.00,,2013-04-23 02:01:00,
2013-04-22 19:12:00,79.0,50.0,29.85,ESE,119,2.0,4.0,37,0.00,,,0.00,,2013-04-23 02:12:00,
2013-04-22 19:21:00,76.0,49.0,29.85,South,172,0.0,5.0,38,0.00,,,0.00,,2013-04-23 02:21:00,
2013-04-22 19:32:00,75.0,50.0,29.84,South,170,1.0,3.0,41,0.00,,,0.00,,2013-04-23 02:32:00,
2013-04-22 19:42:00,75.0,50.0,29.84,South,170,1.0,3.0,41,0.00,,,0.00,,2013-04-23 02:42:00,
2013-04-22 19:52:00,74.0,52.0,29.85,South,170,0.0,1.0,46,0.00,,,0.00,,2013-04-23 02:52:00,
2013-04-22 20:01:00,71.0,51.0,29.85,South,170,0.0,1.0,49,0.00,,,0.00,,2013-04-23 03:01:00,
2013-04-22 20:11:00,71.0,51.0,29.85,South,170,0.0,1.0,49,0.00,,,0.00,,2013-04-23 03:11:00,
2013-04-22 20:21:00,69.0,52.0,29.85,SE,146,0.0,2.0,54,0.00,,,0.00,,2013-04-23 03:21:00,
2013-04-22 20:33:00,69.0,52.0,29.85,SE,146,0.0,2.0,54,0.00,,,0.00,,2013-04-23 03:33:00,
2013-04-22 20:43:00,69.0,52.0,29.85,SE,146,0.0,2.0,54,0.00,,,0.00,,2013-04-23 03:43:00,